Time;durP1;ratioP1;P1;durP2;ratioP2;P2;SDS_P1;SDS_P2;PMS_P1;PMS_P2;Temp;Humidity;BMP_temperature;BMP_pressure;BME280_temperature;BME280_humidity;BME280_pressure;Samples;Min_cycle;Max_cycle;Signal;HPM_P1;HPM_P2
2024/02/29 00:00:06;;;;;;;24.60;13.70;;;;;;;3.11;88.65;101629.77;102843;1301;24491;-58
2024/02/29 00:02:32;;;;;;;25.90;13.30;;;;;;;3.05;88.51;101631.96;102898;1310;24295;-58
2024/02/29 00:04:57;;;;;;;25.80;13.80;;;;;;;3.05;88.80;101638.64;102961;1308;22651;-58
2024/02/29 00:07:23;;;;;;;23.20;13.00;;;;;;;3.09;88.87;101641.30;102843;1291;22786;-58
2024/02/29 00:09:48;;;;;;;23.30;13.40;;;;;;;3.10;88.68;101641.84;102912;1311;23984;-58
2024/02/29 00:12:14;;;;;;;23.50;12.90;;;;;;;3.09;88.78;101648.45;102630;1314;24686;-59
2024/02/29 00:14:39;;;;;;;26.90;14.20;;;;;;;3.10;88.73;101647.30;102920;1311;25546;-58
2024/02/29 00:17:05;;;;;;;26.20;14.70;;;;;;;3.09;88.68;101649.65;102935;1292;27193;-60
2024/02/29 00:19:32;;;;;;;28.70;14.80;;;;;;;3.13;88.82;101649.39;107055;1295;22461;-59
2024/02/29 00:21:57;;;;;;;31.30;15.20;;;;;;;3.15;88.84;101654.92;107056;1308;22129;-58
2024/02/29 00:24:23;;;;;;;28.50;15.50;;;;;;;3.15;88.65;101660.19;107077;1308;22442;-58
2024/02/29 00:26:48;;;;;;;32.80;17.00;;;;;;;3.14;88.48;101662.38;107121;1314;22296;-58
2024/02/29 00:29:14;;;;;;;33.30;15.50;;;;;;;3.16;88.61;101662.78;107104;1294;22277;-58
2024/02/29 00:31:44;;;;;;;27.90;14.70;;;;;;;3.19;88.51;101661.16;107058;1314;22352;-58
2024/02/29 00:34:10;;;;;;;35.10;17.10;;;;;;;3.18;88.11;101664.89;107061;1307;22261;-58
2024/02/29 00:36:35;;;;;;;29.60;16.40;;;;;;;3.17;88.03;101663.17;107083;1308;22565;-59
2024/02/29 00:39:01;;;;;;;30.40;17.20;;;;;;;3.19;88.15;101663.89;107050;1299;23211;-58
2024/02/29 00:41:27;;;;;;;34.60;18.00;;;;;;;3.19;88.16;101658.61;107118;1307;22250;-58
2024/02/29 00:43:52;;;;;;;26.80;16.40;;;;;;;3.21;88.30;101656.80;107108;1311;22341;-58
2024/02/29 00:46:18;;;;;;;32.10;16.80;;;;;;;3.23;88.28;101657.55;106972;1308;22810;-56
2024/02/29 00:48:43;;;;;;;29.60;17.20;;;;;;;3.27;88.27;101656.46;107047;1295;23076;-57
2024/02/29 00:51:09;;;;;;;29.70;16.30;;;;;;;3.30;88.30;101652.48;107091;1300;22272;-59
2024/02/29 00:53:35;;;;;;;33.80;17.10;;;;;;;3.32;88.40;101651.03;107042;1303;22343;-57
2024/02/29 00:56:00;;;;;;;32.60;18.10;;;;;;;3.37;88.51;101652.01;106931;1313;22251;-58
2024/02/29 00:58:26;;;;;;;33.20;16.40;;;;;;;3.38;88.37;101653.41;107062;1298;22254;-58
2024/02/29 01:00:51;;;;;;;27.50;16.20;;;;;;;3.35;88.25;101650.74;106337;1314;24402;-57
2024/02/29 01:03:17;;;;;;;27.90;16.20;;;;;;;3.33;88.20;101649.00;102870;1299;22658;-56
2024/02/29 01:05:42;;;;;;;29.90;16.00;;;;;;;3.35;88.37;101642.90;102928;1308;22561;-58
2024/02/29 01:08:08;;;;;;;30.30;15.80;;;;;;;3.35;88.38;101641.38;102914;1293;23570;-56
2024/02/29 01:10:33;;;;;;;27.90;15.90;;;;;;;3.32;88.38;101640.61;102944;1301;24430;-56
2024/02/29 01:12:59;;;;;;;25.60;15.60;;;;;;;3.30;88.41;101639.38;102941;1298;24284;-59
2024/02/29 01:15:24;;;;;;;27.60;15.10;;;;;;;3.29;88.42;101638.48;102950;1308;25756;-57
2024/02/29 01:17:50;;;;;;;29.60;18.00;;;;;;;3.28;88.46;101637.25;102927;1314;23099;-58
2024/02/29 01:20:16;;;;;;;26.10;14.30;;;;;;;3.31;88.59;101633.42;102874;1311;23833;-59
2024/02/29 01:22:41;;;;;;;29.30;15.20;;;;;;;3.30;88.37;101633.55;102952;1307;22574;-58
2024/02/29 01:25:07;;;;;;;29.70;15.40;;;;;;;3.26;88.29;101631.73;102882;1301;22559;-58
2024/02/29 01:27:34;;;;;;;24.70;14.40;;;;;;;3.23;87.82;101630.64;103183;1298;23975;-58
2024/02/29 01:29:59;;;;;;;23.20;15.00;;;;;;;3.17;87.39;101627.89;102888;1295;22592;-57
2024/02/29 01:32:25;;;;;;;22.40;14.40;;;;;;;3.11;87.58;101624.49;102891;1308;23080;-59
2024/02/29 01:34:50;;;;;;;25.90;15.00;;;;;;;3.08;87.44;101624.91;102977;1307;22785;-57
2024/02/29 01:37:15;;;;;;;28.00;15.70;;;;;;;3.06;87.52;101624.16;102734;1305;206612;-58
2024/02/29 01:39:44;;;;;;;20.90;14.00;;;;;;;3.07;87.74;101624.52;102891;1298;25090;-57
2024/02/29 01:44:04;;;;;;;20.90;14.00;;;;;;;3.06;87.74;101623.14;41380;1312;20004467;-57
2024/02/29 01:46:50;;;;;;;19.70;14.30;;;;;;;3.06;87.51;101621.95;39012;1310;20018317;-58
2024/02/29 01:49:17;;;;;;;20.30;14.70;;;;;;;3.07;87.65;101624.70;102923;1308;22597;-58
2024/02/29 01:51:44;;;;;;;23.60;14.40;;;;;;;3.10;87.56;101621.23;103389;1307;22569;-58
2024/02/29 01:54:11;;;;;;;23.60;15.30;;;;;;;3.07;87.23;101620.44;102974;1302;22795;-59
2024/02/29 01:56:37;;;;;;;20.00;14.20;;;;;;;3.01;86.47;101624.53;102944;1307;22644;-56
2024/02/29 01:59:04;;;;;;;20.10;15.10;;;;;;;2.93;85.60;101625.81;102891;1315;25323;-57
2024/02/29 02:01:30;;;;;;;21.50;15.30;;;;;;;2.89;86.47;101620.39;102791;1310;22570;-57
2024/02/29 02:03:56;;;;;;;21.80;15.50;;;;;;;2.86;86.88;101618.79;102897;1311;22542;-57
2024/02/29 02:06:21;;;;;;;24.20;15.90;;;;;;;2.87;86.99;101618.13;102847;1308;22985;-59
2024/02/29 02:08:47;;;;;;;18.20;13.80;;;;;;;2.87;87.12;101613.02;102899;1301;22591;-58
2024/02/29 02:11:13;;;;;;;19.20;14.40;;;;;;;2.89;87.30;101610.70;102903;1298;24253;-59
2024/02/29 02:13:39;;;;;;;19.80;15.00;;;;;;;2.90;87.33;101605.80;102886;1301;24366;-60
2024/02/29 02:16:07;;;;;;;19.70;14.50;;;;;;;2.90;87.31;101605.45;102669;1315;22828;-57
2024/02/29 02:18:32;;;;;;;17.50;13.10;;;;;;;2.90;87.37;101597.79;103930;1315;25436;-57
2024/02/29 02:20:58;;;;;;;17.30;13.40;;;;;;;2.91;87.31;101593.91;102891;1297;22954;-58
2024/02/29 02:23:23;;;;;;;16.70;13.10;;;;;;;2.88;87.09;101586.82;102637;1311;159012;-58
2024/02/29 02:25:49;;;;;;;18.70;13.20;;;;;;;2.85;86.33;101585.55;102907;1301;22582;-58
2024/02/29 02:28:14;;;;;;;16.80;12.80;;;;;;;2.82;86.35;101583.39;102846;1308;24304;-57
2024/02/29 02:30:40;;;;;;;18.80;12.90;;;;;;;2.82;86.76;101583.90;102784;1301;22606;-58
2024/02/29 02:33:05;;;;;;;15.50;13.00;;;;;;;2.81;86.82;101581.34;102774;1301;22688;-58
2024/02/29 02:35:34;;;;;;;14.00;12.20;;;;;;;2.80;86.85;101574.98;102881;1300;22581;-59
2024/02/29 02:38:03;;;;;;;16.80;12.10;;;;;;;2.80;86.86;101578.41;102837;1304;25230;-58
2024/02/29 02:40:29;;;;;;;14.30;12.20;;;;;;;2.80;86.66;101570.73;102861;1292;26502;-57
2024/02/29 02:42:54;;;;;;;16.30;12.10;;;;;;;2.78;86.40;101569.84;102873;1307;22527;-58
2024/02/29 02:45:20;;;;;;;14.60;11.70;;;;;;;2.77;86.73;101563.31;102768;1307;25478;-58
2024/02/29 02:47:45;;;;;;;14.20;11.90;;;;;;;2.78;86.94;101562.31;102786;1315;25595;-58
2024/02/29 02:50:11;;;;;;;14.90;11.60;;;;;;;2.79;86.88;101559.82;102927;1292;22630;-59
2024/02/29 02:52:37;;;;;;;15.80;12.50;;;;;;;2.78;86.88;101556.20;102822;1304;24287;-59
2024/02/29 02:55:04;;;;;;;14.80;12.20;;;;;;;2.79;86.89;101555.72;102987;1308;22567;-57
2024/02/29 02:57:29;;;;;;;15.50;12.00;;;;;;;2.80;86.91;101552.52;103326;1314;22578;-59
2024/02/29 02:59:55;;;;;;;16.60;12.30;;;;;;;2.80;86.95;101554.23;102890;1308;22676;-57
2024/02/29 03:02:20;;;;;;;13.80;11.50;;;;;;;2.81;86.99;101552.55;102928;1307;22661;-59
2024/02/29 03:04:46;;;;;;;14.40;11.00;;;;;;;2.80;87.04;101552.88;102859;1314;22685;-58
2024/02/29 03:07:12;;;;;;;15.90;12.30;;;;;;;2.83;87.01;101549.36;102939;1314;22740;-57
2024/02/29 03:09:38;;;;;;;16.60;12.10;;;;;;;2.85;86.97;101547.91;103096;1304;23794;-58
2024/02/29 03:12:04;;;;;;;16.40;12.50;;;;;;;2.87;87.12;101544.91;102837;1295;22697;-57
2024/02/29 03:14:29;;;;;;;14.40;12.00;;;;;;;2.91;87.15;101540.59;102789;1304;22575;-57
2024/02/29 03:16:55;;;;;;;13.80;12.00;;;;;;;2.91;87.03;101535.30;102837;1307;27614;-58
2024/02/29 03:19:20;;;;;;;15.20;12.30;;;;;;;2.92;87.09;101534.15;102827;1302;22568;-58
2024/02/29 03:21:46;;;;;;;16.70;11.80;;;;;;;2.93;87.06;101537.92;102838;1299;25400;-58
2024/02/29 03:24:11;;;;;;;14.60;11.90;;;;;;;2.93;86.99;101538.95;102730;1300;22712;-58
2024/02/29 03:26:37;;;;;;;16.30;11.60;;;;;;;2.93;86.96;101539.98;102806;1314;23040;-58
2024/02/29 03:29:02;;;;;;;16.50;12.50;;;;;;;2.89;85.79;101537.30;102815;1308;24288;-58
2024/02/29 03:31:28;;;;;;;14.00;12.20;;;;;;;2.83;86.12;101534.04;102851;1292;25546;-58
2024/02/29 03:33:53;;;;;;;14.20;10.90;;;;;;;2.80;86.49;101531.23;102854;1315;22755;-58
2024/02/29 03:36:19;;;;;;;15.70;12.50;;;;;;;2.78;86.63;101529.82;102886;1301;22620;-57
2024/02/29 03:38:44;;;;;;;16.10;12.30;;;;;;;2.76;86.43;101529.41;102854;1301;22568;-58
2024/02/29 03:41:10;;;;;;;17.50;12.20;;;;;;;2.76;86.16;101529.39;102902;1298;22565;-58
2024/02/29 03:43:35;;;;;;;15.20;12.40;;;;;;;2.76;86.45;101528.39;102910;1301;22609;-59
2024/02/29 03:46:01;;;;;;;16.30;11.90;;;;;;;2.75;86.53;101522.75;102755;1304;22940;-59
2024/02/29 03:48:30;;;;;;;17.40;12.40;;;;;;;2.75;86.39;101520.85;102968;1299;22586;-57
2024/02/29 03:50:55;;;;;;;17.90;13.10;;;;;;;2.74;85.83;101525.92;95674;1314;5003796;-58
2024/02/29 03:53:21;;;;;;;14.70;11.70;;;;;;;2.72;85.74;101526.23;103716;1295;22592;-58
2024/02/29 03:55:49;;;;;;;15.30;11.60;;;;;;;2.70;85.55;101525.15;102880;1311;25451;-59
2024/02/29 03:58:15;;;;;;;15.10;11.70;;;;;;;2.69;85.82;101523.23;102875;1313;24126;-58
2024/02/29 04:00:42;;;;;;;13.80;11.80;;;;;;;2.68;85.95;101522.34;103420;1315;22592;-58
2024/02/29 04:03:08;;;;;;;14.90;11.00;;;;;;;2.67;85.79;101523.17;102961;1314;23119;-58
2024/02/29 04:05:33;;;;;;;17.00;12.30;;;;;;;2.66;85.98;101524.86;102937;1304;22563;-57
2024/02/29 04:08:03;;;;;;;17.90;11.80;;;;;;;2.67;85.84;101527.77;102859;1308;22632;-58
2024/02/29 04:10:30;;;;;;;14.80;11.40;;;;;;;2.68;85.68;101523.20;102870;1304;22626;-59
2024/02/29 04:12:56;;;;;;;;;;;;;;;2.69;85.92;101518.11;105168;1297;22555;-58
2024/02/29 04:15:21;;;;;;;15.70;11.40;;;;;;;2.69;85.88;101517.60;102777;1308;26558;-57
2024/02/29 04:17:47;;;;;;;16.10;12.00;;;;;;;2.69;86.05;101518.48;102806;1311;25494;-59
2024/02/29 04:20:13;;;;;;;16.90;12.80;;;;;;;2.71;85.93;101517.67;102769;1294;22621;-58
2024/02/29 04:22:39;;;;;;;17.70;12.40;;;;;;;2.72;86.13;101517.54;102870;1295;26415;-58
2024/02/29 04:25:05;;;;;;;18.30;12.00;;;;;;;2.74;86.10;101519.31;102780;1310;22905;-59
2024/02/29 04:27:31;;;;;;;18.40;12.40;;;;;;;2.74;85.72;101518.11;102859;1315;22615;-57
2024/02/29 04:29:56;;;;;;;16.00;12.40;;;;;;;2.73;85.49;101518.59;104494;1314;207584;-58
2024/02/29 04:32:21;;;;;;;15.70;12.70;;;;;;;2.73;85.59;101513.48;107011;1293;22402;-59
2024/02/29 04:34:47;;;;;;;17.00;12.20;;;;;;;2.73;85.44;101510.59;105024;1302;22611;-59
2024/02/29 04:37:13;;;;;;;13.80;11.60;;;;;;;2.73;85.40;101510.77;102826;1307;22695;-59
2024/02/29 04:39:38;;;;;;;15.70;12.10;;;;;;;2.74;85.51;101510.27;105769;1303;22579;-57
2024/02/29 04:42:04;;;;;;;19.10;13.70;;;;;;;2.74;84.80;101515.04;102778;1315;25335;-58
2024/02/29 04:44:29;;;;;;;18.10;13.10;;;;;;;2.75;85.46;101517.81;103464;1295;22568;-59
2024/02/29 04:46:55;;;;;;;16.60;13.30;;;;;;;2.77;85.55;101518.71;102912;1308;22624;-59
2024/02/29 04:49:20;;;;;;;19.80;13.90;;;;;;;2.78;85.54;101517.39;102917;1310;24273;-58
2024/02/29 04:51:46;;;;;;;19.60;13.20;;;;;;;2.79;85.46;101521.49;102873;1311;22564;-59
2024/02/29 04:54:11;;;;;;;21.70;15.10;;;;;;;2.78;85.03;101520.09;102871;1295;25390;-57
2024/02/29 04:56:37;;;;;;;26.30;17.20;;;;;;;2.75;84.61;101520.20;102823;1315;25448;-58
2024/02/29 04:59:04;;;;;;;27.50;18.70;;;;;;;2.74;84.74;101516.08;102845;1308;22561;-59
2024/02/29 05:01:30;;;;;;;27.10;19.30;;;;;;;2.75;85.25;101514.22;102801;1314;26603;-58
2024/02/29 05:03:55;;;;;;;27.80;18.20;;;;;;;2.76;85.09;101511.34;102779;1298;22594;-59
2024/02/29 05:06:21;;;;;;;25.10;17.50;;;;;;;2.75;84.75;101509.80;102849;1302;25449;-59
2024/02/29 05:08:47;;;;;;;27.50;19.00;;;;;;;2.75;85.07;101512.71;102898;1315;22612;-59
2024/02/29 05:11:12;;;;;;;25.90;17.60;;;;;;;2.76;85.18;101512.20;104549;1310;22572;-59
2024/02/29 05:13:38;;;;;;;29.00;19.20;;;;;;;2.75;85.39;101511.86;102861;1297;22572;-58
2024/02/29 05:16:04;;;;;;;30.90;19.40;;;;;;;2.76;85.39;101512.23;102875;1307;22562;-59
2024/02/29 05:18:30;;;;;;;30.20;20.20;;;;;;;2.76;85.33;101514.59;103985;1315;23278;-58
2024/02/29 05:20:55;;;;;;;28.80;19.80;;;;;;;2.77;85.50;101515.99;102857;1302;25586;-59
2024/02/29 05:23:21;;;;;;;28.00;19.80;;;;;;;2.79;85.54;101523.54;102843;1291;23996;-57
2024/02/29 05:25:47;;;;;;;30.50;21.00;;;;;;;2.79;84.64;101527.12;102727;1308;22653;-59
2024/02/29 05:28:13;;;;;;;31.10;23.10;;;;;;;2.78;84.86;101522.67;102642;1316;22603;-59
2024/02/29 05:30:39;;;;;;;36.00;24.50;;;;;;;2.77;84.50;101518.04;102826;1311;25345;-57
2024/02/29 05:33:04;;;;;;;35.30;22.20;;;;;;;2.76;84.64;101514.60;102841;1304;22603;-59
2024/02/29 05:35:29;;;;;;;31.20;22.20;;;;;;;2.76;84.87;101510.67;102854;1305;24763;-58
2024/02/29 05:37:55;;;;;;;35.30;24.10;;;;;;;2.75;84.97;101510.99;102901;1309;23429;-58
2024/02/29 05:40:20;;;;;;;33.20;23.50;;;;;;;2.75;85.15;101514.23;102855;1304;22578;-57
2024/02/29 05:42:46;;;;;;;37.00;25.40;;;;;;;2.76;85.14;101521.05;102609;1311;23149;-59
2024/02/29 05:45:12;;;;;;;31.30;23.70;;;;;;;2.75;84.99;101524.61;102660;1315;26193;-57
2024/02/29 05:47:38;;;;;;;35.40;23.80;;;;;;;2.75;85.13;101521.20;102877;1308;22558;-57
2024/02/29 05:50:05;;;;;;;32.90;23.40;;;;;;;2.75;84.83;101520.35;102822;1309;22612;-58
2024/02/29 05:52:30;;;;;;;;;;;;;;;2.74;84.91;101520.15;105561;1311;22565;-58
2024/02/29 05:54:56;;;;;;;36.40;24.20;;;;;;;2.73;84.91;101521.15;102948;1297;22569;-59
2024/02/29 05:57:24;;;;;;;36.30;23.30;;;;;;;2.74;85.13;101519.48;102904;1314;22565;-57
2024/02/29 05:59:50;;;;;;;36.10;24.10;;;;;;;2.75;85.25;101517.63;102879;1315;22746;-59
2024/02/29 06:02:15;;;;;;;33.90;22.90;;;;;;;2.75;85.04;101523.08;102864;1309;22719;-59
2024/02/29 06:04:41;;;;;;;32.90;22.10;;;;;;;2.73;84.70;101527.44;102771;1306;22672;-58
2024/02/29 06:07:06;;;;;;;32.80;21.90;;;;;;;2.69;84.34;101523.90;102834;1303;22633;-58
2024/02/29 06:09:35;;;;;;;32.80;22.20;;;;;;;2.68;84.64;101525.42;102783;1315;24161;-60
2024/02/29 06:12:01;;;;;;;30.60;20.90;;;;;;;2.67;84.55;101527.60;104217;1312;22847;-57
2024/02/29 06:14:27;;;;;;;31.60;22.50;;;;;;;2.65;84.65;101524.99;102797;1305;22667;-59
2024/02/29 06:16:53;;;;;;;31.80;21.50;;;;;;;2.65;84.75;101529.93;102705;1308;24409;-59
2024/02/29 06:19:18;;;;;;;33.00;22.10;;;;;;;2.66;84.87;101528.79;102809;1305;27840;-57
2024/02/29 06:21:44;;;;;;;33.00;21.40;;;;;;;2.68;84.72;101528.83;102759;1301;22681;-59
2024/02/29 06:24:09;;;;;;;30.60;20.00;;;;;;;2.67;84.55;101526.40;102726;1307;22561;-60
2024/02/29 06:26:35;;;;;;;30.50;20.20;;;;;;;2.66;84.33;101530.30;102774;1305;26204;-59
2024/02/29 06:29:01;;;;;;;26.40;17.50;;;;;;;2.63;84.10;101526.98;102772;1315;25471;-58
2024/02/29 06:31:26;;;;;;;29.90;19.50;;;;;;;2.63;84.09;101525.95;102791;1314;25287;-60
2024/02/29 06:33:52;;;;;;;28.70;19.20;;;;;;;2.65;84.46;101523.98;102773;1315;22585;-59
2024/02/29 06:36:18;;;;;;;26.30;18.30;;;;;;;2.66;84.39;101521.95;102712;1308;24285;-59
2024/02/29 06:38:43;;;;;;;31.80;20.50;;;;;;;2.68;84.47;101520.65;102777;1310;22579;-59
2024/02/29 06:41:09;;;;;;;26.50;18.60;;;;;;;2.69;84.38;101521.53;102758;1308;25401;-60
2024/02/29 06:43:34;;;;;;;27.60;18.50;;;;;;;2.70;83.98;101523.95;102683;1310;22569;-60
2024/02/29 06:46:04;;;;;;;28.70;19.40;;;;;;;2.71;84.25;101520.91;102846;1292;24369;-60
2024/02/29 06:48:30;;;;;;;31.50;18.40;;;;;;;2.74;84.58;101518.47;102887;1306;22629;-60
2024/02/29 06:50:56;;;;;;;28.60;18.40;;;;;;;2.78;84.40;101521.64;102920;1311;25448;-60
2024/02/29 06:53:21;;;;;;;27.50;17.90;;;;;;;2.79;83.95;101525.23;102927;1308;22623;-60
2024/02/29 06:55:47;;;;;;;29.60;17.60;;;;;;;2.78;83.13;101526.91;102818;1303;22756;-58
2024/02/29 06:58:12;;;;;;;26.60;17.70;;;;;;;2.78;83.54;101521.99;102970;1308;22581;-59
2024/02/29 07:00:39;;;;;;;25.80;16.70;;;;;;;2.81;83.82;101519.70;102920;1304;24142;-61
2024/02/29 07:03:04;;;;;;;;;;;;;;;2.82;83.45;101513.08;102937;1301;22586;-58
2024/02/29 07:05:30;;;;;;;24.80;16.20;;;;;;;2.84;83.98;101514.15;102852;1292;25477;-60
2024/02/29 07:07:55;;;;;;;28.70;18.60;;;;;;;2.88;84.13;101515.13;102867;1307;22808;-59
2024/02/29 07:10:22;;;;;;;29.00;18.80;;;;;;;2.92;84.34;101515.41;102911;1301;22566;-60
2024/02/29 07:12:48;;;;;;;23.80;16.20;;;;;;;2.97;84.19;101513.52;103302;1314;25109;-60
2024/02/29 07:15:14;;;;;;;24.20;15.70;;;;;;;3.00;84.20;101511.73;103865;1301;24456;-59
2024/02/29 07:17:39;;;;;;;25.10;16.00;;;;;;;3.05;84.17;101508.15;102765;1304;23162;-60
2024/02/29 07:20:05;;;;;;;25.40;16.10;;;;;;;3.11;84.12;101508.98;102852;1314;23015;-58
2024/02/29 07:22:31;;;;;;;22.60;14.90;;;;;;;3.16;84.28;101513.02;105779;1314;22577;-59
2024/02/29 07:24:57;;;;;;;24.50;16.50;;;;;;;3.20;84.00;101507.35;102903;1295;26858;-58
2024/02/29 07:27:23;;;;;;;26.80;16.80;;;;;;;3.22;83.51;101506.56;102781;1297;26642;-60
2024/02/29 07:29:48;;;;;;;25.30;15.60;;;;;;;3.24;83.97;101506.62;99677;1307;5003786;-60
2024/02/29 07:32:14;;;;;;;21.60;15.30;;;;;;;3.28;84.04;101506.91;107042;1308;22377;-59
2024/02/29 07:34:39;;;;;;;24.00;15.20;;;;;;;3.34;84.08;101509.96;107069;1307;23100;-60
2024/02/29 07:37:05;;;;;;;23.60;16.10;;;;;;;3.41;84.16;101512.70;106992;1293;22436;-58
2024/02/29 07:39:30;;;;;;;21.90;14.50;;;;;;;3.43;83.36;101513.11;104884;1313;23435;-60
2024/02/29 07:41:56;;;;;;;25.30;15.40;;;;;;;3.44;83.10;101513.98;102806;1308;22620;-60
2024/02/29 07:44:21;;;;;;;26.70;16.70;;;;;;;3.50;83.96;101513.13;102797;1300;23539;-60
2024/02/29 07:46:47;;;;;;;24.10;16.00;;;;;;;3.58;83.71;101513.67;102767;1305;22598;-60
2024/02/29 07:49:13;;;;;;;20.00;14.50;;;;;;;3.62;83.52;101512.44;102871;1311;22743;-59
2024/02/29 07:51:38;;;;;;;28.40;17.30;;;;;;;3.68;83.96;101514.09;102990;1314;23687;-59
2024/02/29 07:54:04;;;;;;;21.80;15.10;;;;;;;3.73;84.16;101511.67;102947;1314;22562;-60
2024/02/29 07:56:30;;;;;;;23.10;15.60;;;;;;;3.77;83.65;101509.91;102796;1303;22609;-59
2024/02/29 07:58:55;;;;;;;25.20;16.30;;;;;;;3.80;83.67;101506.23;102953;1310;25354;-60
2024/02/29 08:01:21;;;;;;;25.20;16.00;;;;;;;3.86;84.14;101505.21;102924;1315;24379;-60
2024/02/29 08:03:46;;;;;;;25.10;16.50;;;;;;;3.94;84.05;101503.86;102956;1300;23351;-60
2024/02/29 08:06:12;;;;;;;29.00;16.20;;;;;;;4.03;83.87;101504.42;102794;1300;24281;-60
2024/02/29 08:08:37;;;;;;;24.90;16.40;;;;;;;4.11;84.06;101502.08;102933;1292;22574;-59
2024/02/29 08:11:05;;;;;;;25.70;16.50;;;;;;;4.20;84.32;101498.52;102728;1302;22663;-59
2024/02/29 08:13:31;;;;;;;23.90;16.40;;;;;;;4.32;84.14;101493.33;102697;1310;22621;-59
2024/02/29 08:15:56;;;;;;;25.40;16.60;;;;;;;4.45;84.33;101489.71;102861;1299;22578;-57
2024/02/29 08:18:21;;;;;;;22.90;15.40;;;;;;;4.58;84.06;101491.04;102890;1307;24003;-58
2024/02/29 08:20:48;;;;;;;27.10;16.00;;;;;;;4.64;83.48;101489.64;102774;1301;24342;-59
2024/02/29 08:23:15;;;;;;;22.70;16.00;;;;;;;4.75;83.93;101483.02;102963;1308;22688;-58
2024/02/29 08:25:42;;;;;;;21.90;15.50;;;;;;;4.93;83.87;101482.39;105032;1307;22589;-60
2024/02/29 08:28:07;;;;;;;22.80;15.30;;;;;;;5.05;82.84;101486.05;104115;1305;22579;-58
2024/02/29 08:30:33;;;;;;;24.90;14.90;;;;;;;5.02;82.50;101482.73;102884;1307;25613;-60
2024/02/29 08:32:59;;;;;;;20.90;14.70;;;;;;;5.03;83.07;101483.62;102836;1307;22592;-59
2024/02/29 08:35:24;;;;;;;21.70;14.60;;;;;;;5.14;83.23;101480.09;102845;1304;24577;-58
2024/02/29 08:37:50;;;;;;;19.20;12.60;;;;;;;5.19;81.96;101481.70;102830;1294;24515;-59
2024/02/29 08:40:16;;;;;;;17.80;11.90;;;;;;;5.15;82.11;101480.45;102875;1308;24444;-60
2024/02/29 08:42:42;;;;;;;17.10;12.30;;;;;;;5.05;82.08;101479.21;102883;1304;22565;-61
2024/02/29 08:45:08;;;;;;;15.60;12.30;;;;;;;4.99;82.25;101479.94;102846;1315;22579;-60
2024/02/29 08:47:35;;;;;;;18.60;13.50;;;;;;;4.94;82.52;101472.84;102924;1294;22562;-60
2024/02/29 08:50:01;;;;;;;21.60;13.90;;;;;;;4.94;83.20;101471.64;102775;1298;24649;-61
2024/02/29 08:52:26;;;;;;;19.90;12.70;;;;;;;5.00;83.74;101473.30;102780;1315;23953;-61
2024/02/29 08:54:52;;;;;;;19.70;11.90;;;;;;;4.98;83.61;101470.68;102996;1315;22654;-60
2024/02/29 08:57:18;;;;;;;16.70;11.10;;;;;;;4.97;84.35;101470.86;102926;1301;22588;-61
2024/02/29 08:59:43;;;;;;;20.40;13.10;;;;;;;4.95;84.17;101471.32;102723;1313;22951;-61
2024/02/29 09:02:09;;;;;;;19.90;12.60;;;;;;;4.94;84.56;101471.96;102946;1300;22569;-60
2024/02/29 09:04:34;;;;;;;22.60;13.70;;;;;;;4.97;84.79;101471.20;102774;1308;24298;-61
2024/02/29 09:07:00;;;;;;;19.80;13.70;;;;;;;4.97;85.14;101470.00;102976;1313;22589;-59
2024/02/29 09:09:28;;;;;;;21.80;13.70;;;;;;;5.01;85.07;101470.92;102777;1301;22671;-61
2024/02/29 09:11:53;;;;;;;19.10;12.50;;;;;;;5.00;85.07;101471.59;102891;1311;22569;-60
2024/02/29 09:14:20;;;;;;;20.90;12.70;;;;;;;4.99;85.26;101471.06;102782;1301;22637;-60
2024/02/29 09:16:45;;;;;;;21.40;13.00;;;;;;;4.96;85.27;101469.64;102705;1308;22597;-61
2024/02/29 09:19:10;;;;;;;19.60;11.90;;;;;;;4.98;85.43;101467.11;102763;1297;24572;-60
2024/02/29 09:21:36;;;;;;;18.40;12.40;;;;;;;5.03;85.50;101460.54;102770;1316;22652;-60
2024/02/29 09:24:02;;;;;;;20.20;12.00;;;;;;;5.10;85.71;101458.98;102812;1304;22578;-60
2024/02/29 09:26:27;;;;;;;18.30;11.30;;;;;;;5.14;85.84;101460.77;102919;1301;24414;-60
2024/02/29 09:28:54;;;;;;;19.80;13.20;;;;;;;5.17;85.85;101462.88;102777;1298;22591;-60
2024/02/29 09:31:19;;;;;;;20.20;12.50;;;;;;;5.20;85.69;101461.72;102564;1307;22588;-59
2024/02/29 09:33:46;;;;;;;20.00;11.30;;;;;;;5.26;85.78;101468.48;102763;1312;25328;-60
2024/02/29 09:36:12;;;;;;;20.20;12.80;;;;;;;5.23;85.61;101466.73;102668;1297;25107;-60
2024/02/29 09:38:38;;;;;;;20.80;12.90;;;;;;;5.21;85.79;101465.33;102806;1297;22569;-60
2024/02/29 09:41:04;;;;;;;24.80;13.00;;;;;;;5.22;86.19;101461.40;102834;1307;22932;-60
2024/02/29 09:43:31;;;;;;;24.80;12.90;;;;;;;5.20;86.24;101455.58;102863;1314;22563;-60
2024/02/29 09:46:00;;;;;;;20.20;12.20;;;;;;;5.28;86.60;101456.73;102764;1315;22611;-61
2024/02/29 09:48:26;;;;;;;21.20;13.80;;;;;;;5.36;86.64;101460.31;102869;1292;24298;-61
2024/02/29 09:50:52;;;;;;;23.00;14.90;;;;;;;5.39;86.50;101456.27;102913;1307;25467;-61
2024/02/29 09:53:19;;;;;;;25.30;16.40;;;;;;;5.43;86.63;101453.77;102851;1314;25539;-61
2024/02/29 09:55:45;;;;;;;;;;;;;;;5.48;86.45;101447.35;102947;1301;22548;-60
2024/02/29 09:58:16;;;;;;;31.60;17.70;;;;;;;5.49;86.49;101442.77;102989;1308;22717;-61
2024/02/29 10:00:43;;;;;;;27.80;16.80;;;;;;;5.51;86.42;101439.39;102929;1298;22690;-60
2024/02/29 10:03:11;;;;;;;26.90;16.90;;;;;;;5.56;86.51;101439.81;102856;1294;24247;-59
2024/02/29 10:05:37;;;;;;;26.60;17.40;;;;;;;5.57;86.61;101440.52;102884;1307;22649;-61
2024/02/29 10:08:03;;;;;;;25.50;16.30;;;;;;;5.57;86.44;101442.23;102708;1311;23875;-61
2024/02/29 10:10:29;;;;;;;29.10;17.20;;;;;;;5.59;86.36;101438.50;102804;1292;23424;-61
2024/02/29 10:12:55;;;;;;;27.70;16.90;;;;;;;5.63;86.46;101433.28;102913;1301;22593;-61
2024/02/29 10:15:25;;;;;;;25.80;16.10;;;;;;;5.66;86.45;101426.48;102822;1307;22595;-61
2024/02/29 10:17:50;;;;;;;26.90;15.30;;;;;;;5.68;86.69;101420.02;102833;1307;26332;-60
2024/02/29 10:20:18;;;;;;;24.00;14.50;;;;;;;5.74;86.42;101416.33;102751;1297;25318;-60
2024/02/29 10:22:44;;;;;;;27.50;17.50;;;;;;;5.79;86.44;101414.35;102839;1301;24528;-60
2024/02/29 10:25:11;;;;;;;31.00;17.20;;;;;;;5.84;86.50;101411.52;102861;1304;22600;-58
2024/02/29 10:27:38;;;;;;;29.80;17.10;;;;;;;5.90;86.45;101412.00;102841;1311;22571;-60
2024/02/29 10:30:16;;;;;;;26.80;17.30;;;;;;;5.95;86.53;101409.35;102854;1297;22674;-60
2024/02/29 10:32:43;;;;;;;28.60;17.20;;;;;;;5.96;86.56;101408.67;102602;1314;444613;-60
2024/02/29 10:35:24;;;;;;;;;;;;;;;6.01;86.69;101403.45;102868;1308;24405;-60
2024/02/29 10:37:56;;;;;;;28.20;17.00;;;;;;;6.09;86.98;101400.81;102852;1315;23150;-61
2024/02/29 10:40:24;;;;;;;28.40;15.40;;;;;;;6.15;86.81;101399.88;102799;1299;24388;-60
2024/02/29 10:42:51;;;;;;;30.50;16.90;;;;;;;6.16;86.61;101396.99;106988;1309;23281;-61
2024/02/29 10:45:18;;;;;;;28.00;17.00;;;;;;;6.18;86.75;101392.74;106920;1314;22258;-61
2024/02/29 10:47:55;;;;;;;;;;;;;;;6.23;86.89;101389.04;107074;1307;22463;-61
2024/02/29 10:50:29;;;;;;;28.00;17.30;;;;;;;6.28;86.78;101383.61;106857;1297;22274;-60
2024/02/29 10:53:29;;;;;;;28.70;16.10;;;;;;;6.33;86.78;101380.08;106930;1314;22444;-61
2024/02/29 10:56:02;;;;;;;26.40;16.60;;;;;;;6.36;86.60;101372.42;107033;1309;22713;-61
2024/02/29 10:58:38;;;;;;;34.90;18.20;;;;;;;6.36;86.67;101367.80;107015;1309;22301;-61
2024/02/29 11:01:04;;;;;;;30.30;18.40;;;;;;;6.41;86.91;101366.32;106988;1291;22694;-61
2024/02/29 11:03:31;;;;;;;31.10;18.00;;;;;;;6.48;86.85;101362.99;106107;1307;22561;-61
2024/02/29 11:05:58;;;;;;;29.40;18.20;;;;;;;6.51;86.66;101360.97;102814;1314;22585;-60
2024/02/29 11:08:23;;;;;;;;;;;;;;;6.59;86.83;101360.21;106982;1307;22502;-61